Time;durP1;ratioP1;P1;durP2;ratioP2;P2;SDS_P1;SDS_P2;PMS_P1;PMS_P2;Temp;Humidity;BMP_temperature;BMP_pressure;BME280_temperature;BME280_humidity;BME280_pressure;Samples;Min_cycle;Max_cycle;Signal;HPM_P1;HPM_P2
2022/08/02 00:14:56;;;;;;;9.80;5.20;;;;;;;19.69;95.87;100339.93;656745;1280;25552;-84
2022/08/02 00:30:00;;;;;;;8.30;4.80;;;;;;;19.99;94.76;100345.34;656372;1280;24388;-83
2022/08/02 00:45:04;;;;;;;15.30;5.60;;;;;;;19.84;95.08;100350.33;655741;1280;24284;-84
2022/08/02 01:00:08;;;;;;;15.90;5.20;;;;;;;19.54;95.86;100357.54;655200;1280;22554;-84
2022/08/02 01:15:11;;;;;;;6.40;3.70;;;;;;;19.14;96.29;100363.90;655012;1280;25557;-83
2022/08/02 01:30:16;;;;;;;7.10;5.10;;;;;;;18.87;97.28;100376.80;655521;1280;25274;-85
2022/08/02 01:45:23;;;;;;;7.30;4.70;;;;;;;18.85;97.71;100384.99;656959;1280;25327;-83
2022/08/02 02:00:30;;;;;;;6.90;4.90;;;;;;;18.68;98.38;100387.20;656714;1280;25332;-82
2022/08/02 02:15:39;;;;;;;8.60;5.60;;;;;;;18.63;98.90;100396.33;656326;1280;22555;-83
2022/08/02 02:30:46;;;;;;;;;;;;;;;18.49;99.61;100405.36;656475;1280;25386;-83
2022/08/02 02:45:50;;;;;;;10.30;6.20;;;;;;;18.44;100.00;100401.77;655267;1281;25499;-83
2022/08/02 03:16:17;;;;;;;5.50;3.50;;;;;;;18.51;100.00;100396.73;655998;1279;25340;-83
2022/08/02 03:31:20;;;;;;;5.70;4.20;;;;;;;18.73;100.00;100390.54;654758;1281;22551;-85
2022/08/02 03:46:24;;;;;;;11.10;6.40;;;;;;;18.72;100.00;100404.59;656014;1280;25500;-83
2022/08/02 04:01:27;;;;;;;7.80;5.70;;;;;;;18.77;100.00;100428.93;655049;1280;22560;-82
2022/08/02 04:16:42;;;;;;;7.90;4.90;;;;;;;18.89;100.00;100458.20;657409;1280;23176;-82
2022/08/02 04:31:46;;;;;;;7.70;5.00;;;;;;;19.14;100.00;100464.47;660145;1280;22579;-84
2022/08/02 04:46:51;;;;;;;8.20;4.80;;;;;;;19.33;100.00;100486.08;658954;1280;22548;-85
2022/08/02 05:01:54;;;;;;;9.30;4.10;;;;;;;19.83;100.00;100498.98;658504;1280;22557;-83
2022/08/02 05:16:57;;;;;;;4.70;3.70;;;;;;;20.40;100.00;100508.72;659516;1280;22633;-85
2022/08/02 05:32:01;;;;;;;9.90;3.70;;;;;;;20.74;100.00;100516.93;658364;1280;22793;-84
2022/08/02 05:47:04;;;;;;;6.10;4.10;;;;;;;21.16;100.00;100534.54;657863;1281;23572;-84
2022/08/02 06:02:42;;;;;;;3.80;3.20;;;;;;;21.61;100.00;100553.76;658776;1280;24422;-83
2022/08/02 06:17:46;;;;;;;4.90;3.70;;;;;;;21.91;100.00;100566.59;658220;1280;32080;-84
2022/08/02 06:32:52;;;;;;;7.70;4.80;;;;;;;22.01;100.00;100581.45;658900;1281;22764;-84
2022/08/02 06:47:55;;;;;;;5.00;3.70;;;;;;;22.05;100.00;100588.15;659119;1281;25993;-84
2022/08/02 07:02:59;;;;;;;7.20;4.40;;;;;;;22.35;100.00;100604.09;659502;1281;22567;-84
2022/08/02 07:18:03;;;;;;;7.10;4.70;;;;;;;22.52;99.22;100611.55;659069;1280;22576;-85
2022/08/02 07:33:07;;;;;;;5.40;4.00;;;;;;;22.82;98.96;100619.54;658394;1281;22559;-84
2022/08/02 07:48:31;;;;;;;8.10;4.20;;;;;;;23.36;97.14;100624.11;658594;1279;24257;-84
2022/08/02 08:03:34;;;;;;;9.90;3.60;;;;;;;24.76;93.75;100633.40;659203;1280;22559;-84
2022/08/02 08:18:38;;;;;;;6.00;3.50;;;;;;;25.64;87.48;100630.65;659869;1280;25627;-84
2022/08/02 08:33:41;;;;;;;4.50;2.80;;;;;;;26.28;84.01;100623.14;659130;1280;24143;-85
2022/08/02 08:48:48;;;;;;;4.90;2.70;;;;;;;27.33;82.50;100620.95;658035;1280;22701;-84
2022/08/02 09:03:52;;;;;;;4.70;2.50;;;;;;;27.92;77.98;100622.98;659194;1280;23390;-84
2022/08/02 09:18:57;;;;;;;3.30;2.50;;;;;;;28.00;73.78;100628.95;659379;1280;26468;-84
2022/08/02 09:34:03;;;;;;;3.70;2.40;;;;;;;27.58;72.52;100625.00;657292;1280;25374;-83
2022/08/02 09:49:11;;;;;;;4.10;2.30;;;;;;;28.35;69.41;100628.03;661060;1280;22540;-83
2022/08/02 10:04:21;;;;;;;6.10;2.20;;;;;;;28.64;66.03;100619.36;658211;1280;22769;-83
2022/08/02 10:19:27;;;;;;;2.60;2.10;;;;;;;29.11;66.06;100611.96;657796;1280;24251;-82
2022/08/02 10:34:55;;;;;;;2.20;2.00;;;;;;;28.53;67.36;100605.26;659927;1280;22556;-85
2022/08/02 10:50:05;;;;;;;3.00;1.40;;;;;;;30.06;63.06;100600.59;659113;1280;24503;-83
2022/08/02 11:05:13;;;;;;;3.50;1.70;;;;;;;30.28;61.00;100599.42;659360;1280;25407;-86
2022/08/02 11:20:19;;;;;;;;;;;;;;;29.66;61.16;100591.41;658249;1280;25259;-85
2022/08/02 11:35:32;;;;;;;1.80;1.00;;;;;;;30.95;57.11;100588.52;659019;1280;23531;-83
2022/08/02 11:50:36;;;;;;;2.90;1.20;;;;;;;31.21;55.42;100578.47;660598;1280;139236;-87
2022/08/02 12:05:40;;;;;;;2.30;1.70;;;;;;;31.15;55.54;100581.63;661816;1280;139291;-82
2022/08/02 12:21:24;;;;;;;3.90;1.80;;;;;;;30.59;55.15;100578.48;662147;1280;138881;-83
2022/08/02 12:36:28;;;;;;;4.00;1.40;;;;;;;31.12;54.68;100566.11;656127;1283;139657;-83
2022/08/02 12:51:37;;;;;;;3.20;1.50;;;;;;;31.89;54.24;100569.33;659024;1280;139484;-88
2022/08/02 13:07:01;;;;;;;4.70;1.60;;;;;;;32.05;52.30;100573.21;658382;1279;139411;-86
2022/08/02 13:22:05;;;;;;;2.80;1.40;;;;;;;32.30;51.78;100567.87;667290;1280;138811;-85
2022/08/02 13:37:13;;;;;;;4.00;1.20;;;;;;;31.26;53.61;100559.67;660258;1280;138273;-86
2022/08/02 13:52:17;;;;;;;2.10;0.90;;;;;;;32.84;51.81;100552.31;660160;1280;140011;-85
2022/08/02 14:07:21;;;;;;;2.00;1.70;;;;;;;32.30;50.09;100546.88;657559;1280;139230;-85
2022/08/02 14:22:27;;;;;;;2.20;1.20;;;;;;;32.42;48.58;100533.71;661118;1280;140429;-84
2022/08/02 14:37:31;;;;;;;1.60;1.30;;;;;;;34.74;45.57;100539.12;658329;1280;138466;-85
2022/08/02 14:52:34;;;;;;;4.10;1.00;;;;;;;36.79;43.34;100532.86;658994;1280;139145;-86
2022/08/02 15:07:39;;;;;;;2.80;1.00;;;;;;;35.63;44.30;100523.12;661614;1280;348967;-84
2022/08/02 15:22:48;;;;;;;2.10;1.70;;;;;;;33.34;44.76;100505.77;658818;1280;138668;-84
2022/08/02 15:37:53;;;;;;;3.10;1.70;;;;;;;32.39;45.47;100505.06;663816;1280;139051;-86
2022/08/02 15:52:56;;;;;;;1.60;1.50;;;;;;;32.30;45.29;100497.13;658537;1280;138580;-82
2022/08/02 16:07:59;;;;;;;4.20;1.40;;;;;;;31.84;44.58;100499.89;657511;1280;138237;-84
2022/08/02 16:23:03;;;;;;;2.90;1.80;;;;;;;31.71;44.88;100507.00;656645;1280;138191;-85
2022/08/02 16:38:07;;;;;;;2.30;1.20;;;;;;;31.46;45.45;100500.91;656233;1281;138360;-83
2022/08/02 16:53:10;;;;;;;4.70;2.30;;;;;;;31.12;45.57;100502.25;657071;1280;138531;-84
2022/08/02 17:08:32;;;;;;;3.50;1.80;;;;;;;30.54;47.24;100502.36;656840;1280;139148;-85
2022/08/02 17:23:35;;;;;;;19.00;12.20;;;;;;;30.23;47.87;100507.68;656029;1280;138375;-84
2022/08/02 17:38:59;;;;;;;5.50;3.60;;;;;;;29.77;49.46;100514.92;657045;1281;139466;-86
2022/08/02 17:54:22;;;;;;;3.40;1.60;;;;;;;28.89;51.07;100506.92;656503;1280;141249;-85
2022/08/02 18:09:28;;;;;;;5.60;2.20;;;;;;;28.19;52.20;100521.90;658587;1280;139890;-86
2022/08/02 18:24:31;;;;;;;39.50;23.20;;;;;;;27.65;53.55;100537.96;657613;1280;139951;-86
2022/08/02 18:39:35;;;;;;;57.30;31.00;;;;;;;27.21;56.28;100552.92;656294;1280;140146;-86
2022/08/02 18:54:40;;;;;;;30.70;15.90;;;;;;;26.09;59.88;100572.34;656063;1281;139181;-85
2022/08/02 19:09:46;;;;;;;20.60;9.60;;;;;;;25.80;60.59;100585.39;655342;1281;140088;-87
2022/08/02 19:24:50;;;;;;;17.10;10.10;;;;;;;25.21;62.43;100591.11;655650;1281;138771;-86
2022/08/02 19:39:53;;;;;;;38.30;16.30;;;;;;;24.71;64.00;100598.52;660773;1280;139433;-85
2022/08/02 19:55:00;;;;;;;14.60;9.80;;;;;;;24.16;65.37;100601.61;655893;1280;138880;-87
2022/08/02 20:10:26;;;;;;;18.70;10.00;;;;;;;23.56;67.01;100606.61;656315;1280;138890;-86
2022/08/02 20:25:29;;;;;;;11.20;6.30;;;;;;;23.02;68.58;100612.23;658049;1277;138805;-87
2022/08/02 20:40:37;;;;;;;9.00;5.20;;;;;;;22.20;71.93;100610.05;656158;1278;139428;-87
2022/08/02 20:55:43;;;;;;;18.40;10.30;;;;;;;21.29;76.94;100606.01;656545;1277;139084;-87
2022/08/02 21:10:47;;;;;;;25.40;11.00;;;;;;;21.20;79.69;100607.02;655938;1277;138835;-86
2022/08/02 21:25:56;;;;;;;5.80;3.30;;;;;;;20.95;82.31;100603.30;656186;1277;140083;-86
2022/08/02 21:40:59;;;;;;;11.80;3.80;;;;;;;20.85;83.00;100605.36;655914;1277;139942;-87
2022/08/02 21:56:03;;;;;;;6.70;2.90;;;;;;;20.86;85.50;100617.05;655787;1277;139134;-87
2022/08/02 22:11:11;;;;;;;6.20;3.00;;;;;;;20.81;87.09;100625.30;656412;1277;140657;-87
2022/08/02 22:26:19;;;;;;;6.30;4.20;;;;;;;20.57;88.74;100629.84;656290;1277;139906;-88
2022/08/02 22:41:23;;;;;;;11.30;6.30;;;;;;;20.57;89.58;100633.86;655628;1277;140359;-86
2022/08/02 22:56:26;;;;;;;6.50;4.70;;;;;;;20.76;87.23;100639.48;656076;1277;140671;-87
2022/08/02 23:11:29;;;;;;;21.30;13.60;;;;;;;20.45;88.58;100643.45;656298;1277;140130;-84
2022/08/02 23:26:32;;;;;;;33.80;24.40;;;;;;;19.99;93.06;100649.46;656408;1277;140498;-83
2022/08/02 23:41:35;;;;;;;14.30;8.30;;;;;;;19.98;94.71;100639.99;656585;1277;139535;-84
2022/08/02 23:56:39;;;;;;;10.20;6.60;;;;;;;19.99;96.41;100635.62;656977;1277;139355;-85
